Date,TemperatureHighF,TemperatureAvgF,TemperatureLowF,DewpointHighF,DewpointAvgF,DewpointLowF,HumidityHigh,HumidityAvg,HumidityLow,PressureMaxIn,PressureMinIn,WindSpeedMaxMPH,WindSpeedAvgMPH,GustSpeedMaxMPH,PrecipitationSumIn
2013-3-1,32,29,26,32,26,19,100,88,76,30.13,29.96,12,6,19,0.13
2013-3-2,28,26,25,22,20,18,87,77,68,30.12,30.08,13,6,16,0.00
2013-3-3,32,27,23,21,18,15,89,71,55,30.10,30.04,20,6,20,0.00
2013-3-4,36,28,19,24,20,16,88,71,48,30.18,30.06,7,2,8,0.01
2013-3-5,33,30,27,31,29,26,100,94,78,30.09,29.68,19,8,19,0.00
2013-3-6,33,29,25,29,27,24,100,91,83,30.26,29.74,19,8,22,0.01
2013-3-7,38,34,31,32,29,24,98,83,63,30.41,30.24,10,3,22,0.01
2013-3-8,38,31,22,26,24,20,93,74,58,30.52,30.41,6,1,8,0.00
2013-3-9,42,35,27,37,30,24,94,83,68,30.43,30.01,13,4,13,0.00
2013-3-10,61,49,41,49,40,35,81,72,57,30.00,29.77,12,6,12,0.00
2013-3-11,55,48,36,52,45,33,100,89,67,29.78,29.53,29,12,29,0.00
2013-3-12,37,34,31,34,29,24,98,85,66,29.98,29.78,24,12,29,0.05
2013-3-13,33,28,26,31,22,17,94,78,64,30.29,29.96,22,10,29,0.00
2013-3-14,40,31,23,26,21,18,83,67,45,30.33,30.14,14,7,21,0.00
2013-3-15,39,33,31,34,30,23,100,90,67,30.15,29.94,14,6,14,0.00
2013-3-19,35,32,28,20,19,16,64,58,53,30.04,29.91,34,18,38,0.01
2013-3-20,31,26,21,19,15,9,79,62,48,30.03,29.97,20,10,38,0.00
2013-3-21,32,24,15,21,16,12,89,73,53,30.02,29.97,18,7,20,0.00
2013-3-22,41,30,20,21,19,16,85,65,40,30.07,30.00,17,5,17,0.00
2013-3-23,42,33,24,27,22,18,87,66,49,30.11,30.01,8,3,8,0.00
2013-3-24,35,31,27,28,24,22,97,78,62,30.01,29.54,25,10,25,0.00
2013-3-25,33,30,28,33,30,28,100,100,98,29.94,29.49,18,9,21,0.00
2013-3-26,40,34,31,32,30,27,98,85,61,30.20,29.94,12,6,21,0.01
2013-3-27,41,35,31,34,30,26,95,83,63,30.29,30.19,13,6,13,0.00
2013-3-28,46,37,28,33,28,23,86,70,48,30.34,30.28,21,7,21,0.00
2013-3-29,51,40,30,31,28,23,92,64,36,30.33,30.22,12,3,12,0.00
2013-3-30,54,44,32,37,28,22,71,55,41,30.24,29.93,12,2,12,0.00
2013-3-31,58,48,41,46,38,-100,100,71,42,29.93,29.67,21,8,21,0.00